sensor_id;sensor_type;location;lat;lon;timestamp;P1;durP1;ratioP1;P2;durP2;ratioP2
67187;SDS011;54117;53.532;49.426;2022-08-19T00:01:31;13.75;;;3.33;;
67187;SDS011;54117;53.532;49.426;2022-08-19T00:04:00;20.40;;;3.83;;
67187;SDS011;54117;53.532;49.426;2022-08-19T00:06:29;16.50;;;4.68;;
67187;SDS011;54117;53.532;49.426;2022-08-19T00:08:56;28.52;;;5.13;;
67187;SDS011;54117;53.532;49.426;2022-08-19T00:11:23;28.98;;;5.53;;
67187;SDS011;54117;53.532;49.426;2022-08-19T00:13:50;42.95;;;6.55;;
67187;SDS011;54117;53.532;49.426;2022-08-19T00:16:17;40.42;;;6.72;;
67187;SDS011;54117;53.532;49.426;2022-08-19T00:18:46;48.53;;;7.43;;
67187;SDS011;54117;53.532;49.426;2022-08-19T00:21:12;29.65;;;6.65;;
67187;SDS011;54117;53.532;49.426;2022-08-19T00:23:39;26.88;;;5.28;;
67187;SDS011;54117;53.532;49.426;2022-08-19T00:26:06;24.20;;;5.80;;
67187;SDS011;54117;53.532;49.426;2022-08-19T00:28:34;34.83;;;6.00;;
67187;SDS011;54117;53.532;49.426;2022-08-19T00:31:04;27.85;;;4.88;;
67187;SDS011;54117;53.532;49.426;2022-08-19T00:33:32;35.35;;;5.82;;
67187;SDS011;54117;53.532;49.426;2022-08-19T00:36:02;32.08;;;5.28;;
67187;SDS011;54117;53.532;49.426;2022-08-19T00:38:32;23.38;;;4.68;;
67187;SDS011;54117;53.532;49.426;2022-08-19T00:40:59;28.58;;;7.15;;
67187;SDS011;54117;53.532;49.426;2022-08-19T00:43:26;27.58;;;5.50;;
67187;SDS011;54117;53.532;49.426;2022-08-19T00:45:53;34.08;;;5.28;;
67187;SDS011;54117;53.532;49.426;2022-08-19T00:48:20;26.40;;;5.13;;
67187;SDS011;54117;53.532;49.426;2022-08-19T00:50:47;28.30;;;5.30;;
67187;SDS011;54117;53.532;49.426;2022-08-19T00:53:16;16.40;;;4.30;;
67187;SDS011;54117;53.532;49.426;2022-08-19T00:55:46;25.60;;;4.95;;
67187;SDS011;54117;53.532;49.426;2022-08-19T00:58:15;34.80;;;6.05;;
67187;SDS011;54117;53.532;49.426;2022-08-19T01:00:44;36.10;;;6.13;;
67187;SDS011;54117;53.532;49.426;2022-08-19T01:03:13;32.58;;;5.75;;
67187;SDS011;54117;53.532;49.426;2022-08-19T01:05:42;14.07;;;3.53;;
67187;SDS011;54117;53.532;49.426;2022-08-19T01:08:10;20.58;;;3.53;;
67187;SDS011;54117;53.532;49.426;2022-08-19T01:10:37;20.67;;;4.93;;
67187;SDS011;54117;53.532;49.426;2022-08-19T01:13:08;19.27;;;4.32;;
67187;SDS011;54117;53.532;49.426;2022-08-19T01:15:40;31.10;;;4.80;;
67187;SDS011;54117;53.532;49.426;2022-08-19T01:18:11;34.15;;;5.25;;
67187;SDS011;54117;53.532;49.426;2022-08-19T01:20:40;31.30;;;5.82;;
67187;SDS011;54117;53.532;49.426;2022-08-19T01:23:08;41.85;;;6.78;;
67187;SDS011;54117;53.532;49.426;2022-08-19T01:25:38;45.83;;;7.05;;
67187;SDS011;54117;53.532;49.426;2022-08-19T01:28:26;51.47;;;7.53;;
67187;SDS011;54117;53.532;49.426;2022-08-19T01:30:53;48.60;;;8.23;;
67187;SDS011;54117;53.532;49.426;2022-08-19T01:33:20;47.13;;;7.05;;
67187;SDS011;54117;53.532;49.426;2022-08-19T01:35:47;54.40;;;8.13;;
67187;SDS011;54117;53.532;49.426;2022-08-19T01:38:26;33.40;;;6.68;;
67187;SDS011;54117;53.532;49.426;2022-08-19T01:40:56;49.42;;;7.53;;
67187;SDS011;54117;53.532;49.426;2022-08-19T01:43:23;47.38;;;7.38;;
67187;SDS011;54117;53.532;49.426;2022-08-19T01:45:50;40.28;;;7.60;;
67187;SDS011;54117;53.532;49.426;2022-08-19T01:48:16;37.63;;;6.90;;
67187;SDS011;54117;53.532;49.426;2022-08-19T01:50:42;34.63;;;6.50;;
67187;SDS011;54117;53.532;49.426;2022-08-19T01:53:10;37.38;;;6.55;;
67187;SDS011;54117;53.532;49.426;2022-08-19T01:55:37;37.88;;;6.72;;
67187;SDS011;54117;53.532;49.426;2022-08-19T01:58:05;52.25;;;7.60;;
67187;SDS011;54117;53.532;49.426;2022-08-19T02:00:36;38.72;;;7.03;;
67187;SDS011;54117;53.532;49.426;2022-08-19T02:03:03;49.17;;;8.02;;
67187;SDS011;54117;53.532;49.426;2022-08-19T02:05:29;36.90;;;7.15;;
67187;SDS011;54117;53.532;49.426;2022-08-19T02:07:55;33.80;;;6.72;;
67187;SDS011;54117;53.532;49.426;2022-08-19T02:10:22;31.55;;;8.30;;
67187;SDS011;54117;53.532;49.426;2022-08-19T02:12:49;28.27;;;5.93;;
67187;SDS011;54117;53.532;49.426;2022-08-19T02:15:16;37.13;;;6.75;;
67187;SDS011;54117;53.532;49.426;2022-08-19T02:17:45;32.33;;;6.55;;
67187;SDS011;54117;53.532;49.426;2022-08-19T02:20:12;44.35;;;7.20;;
67187;SDS011;54117;53.532;49.426;2022-08-19T02:22:39;38.45;;;7.13;;
67187;SDS011;54117;53.532;49.426;2022-08-19T02:25:08;35.53;;;6.25;;
67187;SDS011;54117;53.532;49.426;2022-08-19T02:27:36;41.05;;;7.20;;
67187;SDS011;54117;53.532;49.426;2022-08-19T02:30:03;33.10;;;5.38;;
67187;SDS011;54117;53.532;49.426;2022-08-19T02:32:31;25.00;;;5.07;;
67187;SDS011;54117;53.532;49.426;2022-08-19T02:34:58;21.42;;;3.72;;
67187;SDS011;54117;53.532;49.426;2022-08-19T02:37:24;7.72;;;2.63;;
67187;SDS011;54117;53.532;49.426;2022-08-19T02:40:09;7.93;;;2.45;;
67187;SDS011;54117;53.532;49.426;2022-08-19T02:42:36;7.68;;;2.05;;
67187;SDS011;54117;53.532;49.426;2022-08-19T02:45:03;5.07;;;2.00;;
67187;SDS011;54117;53.532;49.426;2022-08-19T02:47:30;6.82;;;2.00;;
67187;SDS011;54117;53.532;49.426;2022-08-19T02:49:56;5.28;;;2.58;;
67187;SDS011;54117;53.532;49.426;2022-08-19T02:52:22;13.25;;;3.40;;
67187;SDS011;54117;53.532;49.426;2022-08-19T02:54:49;13.07;;;3.15;;
67187;SDS011;54117;53.532;49.426;2022-08-19T02:57:15;27.40;;;3.63;;
67187;SDS011;54117;53.532;49.426;2022-08-19T02:59:41;19.70;;;3.95;;
67187;SDS011;54117;53.532;49.426;2022-08-19T03:02:07;24.02;;;3.55;;
67187;SDS011;54117;53.532;49.426;2022-08-19T03:04:33;26.45;;;3.85;;
67187;SDS011;54117;53.532;49.426;2022-08-19T03:06:59;17.42;;;3.85;;
67187;SDS011;54117;53.532;49.426;2022-08-19T03:09:26;17.95;;;3.47;;
67187;SDS011;54117;53.532;49.426;2022-08-19T03:11:52;14.10;;;3.25;;
67187;SDS011;54117;53.532;49.426;2022-08-19T03:14:18;14.93;;;2.58;;
67187;SDS011;54117;53.532;49.426;2022-08-19T03:16:46;17.55;;;3.50;;
67187;SDS011;54117;53.532;49.426;2022-08-19T03:19:15;12.73;;;2.70;;
67187;SDS011;54117;53.532;49.426;2022-08-19T03:21:43;22.48;;;3.58;;
67187;SDS011;54117;53.532;49.426;2022-08-19T03:24:10;13.07;;;3.00;;
67187;SDS011;54117;53.532;49.426;2022-08-19T03:26:41;15.70;;;3.53;;
67187;SDS011;54117;53.532;49.426;2022-08-19T03:29:13;21.58;;;2.47;;
67187;SDS011;54117;53.532;49.426;2022-08-19T03:31:40;15.75;;;2.97;;
67187;SDS011;54117;53.532;49.426;2022-08-19T03:34:14;14.20;;;3.55;;
67187;SDS011;54117;53.532;49.426;2022-08-19T03:36:43;30.17;;;5.53;;
67187;SDS011;54117;53.532;49.426;2022-08-19T03:39:10;19.48;;;4.00;;
67187;SDS011;54117;53.532;49.426;2022-08-19T03:41:38;29.20;;;4.45;;
67187;SDS011;54117;53.532;49.426;2022-08-19T03:44:06;25.77;;;4.45;;
67187;SDS011;54117;53.532;49.426;2022-08-19T03:46:34;31.02;;;4.47;;
67187;SDS011;54117;53.532;49.426;2022-08-19T03:49:02;28.73;;;5.95;;
67187;SDS011;54117;53.532;49.426;2022-08-19T03:51:35;47.25;;;6.82;;
67187;SDS011;54117;53.532;49.426;2022-08-19T03:54:04;28.02;;;5.88;;
67187;SDS011;54117;53.532;49.426;2022-08-19T03:56:35;22.25;;;4.65;;
67187;SDS011;54117;53.532;49.426;2022-08-19T03:59:04;30.33;;;5.70;;
67187;SDS011;54117;53.532;49.426;2022-08-19T04:01:32;23.92;;;4.00;;
67187;SDS011;54117;53.532;49.426;2022-08-19T04:03:59;15.18;;;3.80;;
67187;SDS011;54117;53.532;49.426;2022-08-19T04:06:29;6.93;;;3.17;;
67187;SDS011;54117;53.532;49.426;2022-08-19T04:08:58;14.20;;;3.17;;
67187;SDS011;54117;53.532;49.426;2022-08-19T04:11:30;10.88;;;3.00;;
67187;SDS011;54117;53.532;49.426;2022-08-19T04:14:00;3.53;;;2.30;;
67187;SDS011;54117;53.532;49.426;2022-08-19T04:16:27;9.27;;;2.75;;
67187;SDS011;54117;53.532;49.426;2022-08-19T04:18:59;10.90;;;2.38;;
67187;SDS011;54117;53.532;49.426;2022-08-19T04:21:27;7.45;;;1.88;;
67187;SDS011;54117;53.532;49.426;2022-08-19T04:23:54;6.95;;;2.20;;
67187;SDS011;54117;53.532;49.426;2022-08-19T04:26:29;16.02;;;2.75;;
67187;SDS011;54117;53.532;49.426;2022-08-19T04:29:00;6.15;;;2.05;;
67187;SDS011;54117;53.532;49.426;2022-08-19T04:31:30;7.22;;;2.28;;
67187;SDS011;54117;53.532;49.426;2022-08-19T04:34:01;8.02;;;2.25;;
67187;SDS011;54117;53.532;49.426;2022-08-19T04:36:31;9.15;;;2.05;;
67187;SDS011;54117;53.532;49.426;2022-08-19T04:39:01;11.40;;;3.30;;
67187;SDS011;54117;53.532;49.426;2022-08-19T04:41:31;15.35;;;2.63;;
67187;SDS011;54117;53.532;49.426;2022-08-19T04:44:17;13.02;;;2.75;;
67187;SDS011;54117;53.532;49.426;2022-08-19T04:46:44;4.47;;;1.85;;
67187;SDS011;54117;53.532;49.426;2022-08-19T04:49:12;6.63;;;2.03;;
67187;SDS011;54117;53.532;49.426;2022-08-19T04:51:40;12.70;;;2.35;;
67187;SDS011;54117;53.532;49.426;2022-08-19T04:54:08;8.88;;;2.25;;
67187;SDS011;54117;53.532;49.426;2022-08-19T04:56:57;7.65;;;2.28;;
67187;SDS011;54117;53.532;49.426;2022-08-19T04:59:24;9.00;;;2.40;;
67187;SDS011;54117;53.532;49.426;2022-08-19T05:01:50;12.93;;;2.90;;
67187;SDS011;54117;53.532;49.426;2022-08-19T05:04:20;4.22;;;2.38;;
67187;SDS011;54117;53.532;49.426;2022-08-19T05:06:50;9.98;;;2.58;;
67187;SDS011;54117;53.532;49.426;2022-08-19T05:09:19;7.90;;;1.98;;
67187;SDS011;54117;53.532;49.426;2022-08-19T05:11:46;4.88;;;2.25;;
67187;SDS011;54117;53.532;49.426;2022-08-19T05:14:15;7.85;;;2.20;;
67187;SDS011;54117;53.532;49.426;2022-08-19T05:16:47;7.47;;;1.67;;
67187;SDS011;54117;53.532;49.426;2022-08-19T05:19:13;8.32;;;1.63;;
67187;SDS011;54117;53.532;49.426;2022-08-19T05:22:01;4.38;;;2.00;;
67187;SDS011;54117;53.532;49.426;2022-08-19T05:24:46;5.43;;;2.08;;
67187;SDS011;54117;53.532;49.426;2022-08-19T05:27:12;17.35;;;2.17;;
67187;SDS011;54117;53.532;49.426;2022-08-19T05:29:39;5.57;;;2.38;;
67187;SDS011;54117;53.532;49.426;2022-08-19T05:32:05;9.70;;;1.83;;
67187;SDS011;54117;53.532;49.426;2022-08-19T05:34:36;8.90;;;1.60;;
67187;SDS011;54117;53.532;49.426;2022-08-19T05:37:04;5.82;;;2.20;;
67187;SDS011;54117;53.532;49.426;2022-08-19T05:39:31;5.78;;;2.92;;
67187;SDS011;54117;53.532;49.426;2022-08-19T05:42:01;16.90;;;2.63;;
67187;SDS011;54117;53.532;49.426;2022-08-19T05:44:33;12.98;;;2.47;;
67187;SDS011;54117;53.532;49.426;2022-08-19T05:47:04;6.78;;;2.22;;
67187;SDS011;54117;53.532;49.426;2022-08-19T05:49:33;5.57;;;1.70;;
67187;SDS011;54117;53.532;49.426;2022-08-19T05:52:07;5.30;;;2.28;;
67187;SDS011;54117;53.532;49.426;2022-08-19T05:54:39;3.92;;;1.90;;
67187;SDS011;54117;53.532;49.426;2022-08-19T05:57:06;7.15;;;2.05;;
67187;SDS011;54117;53.532;49.426;2022-08-19T05:59:33;6.75;;;2.15;;
67187;SDS011;54117;53.532;49.426;2022-08-19T06:02:01;10.93;;;2.40;;
67187;SDS011;54117;53.532;49.426;2022-08-19T06:04:28;9.70;;;1.88;;
67187;SDS011;54117;53.532;49.426;2022-08-19T06:06:55;6.57;;;2.45;;
67187;SDS011;54117;53.532;49.426;2022-08-19T06:09:22;10.25;;;2.53;;
67187;SDS011;54117;53.532;49.426;2022-08-19T06:11:50;8.95;;;1.92;;
67187;SDS011;54117;53.532;49.426;2022-08-19T06:14:26;5.13;;;2.10;;
67187;SDS011;54117;53.532;49.426;2022-08-19T06:16:55;6.30;;;2.55;;
67187;SDS011;54117;53.532;49.426;2022-08-19T06:19:23;6.95;;;2.58;;
67187;SDS011;54117;53.532;49.426;2022-08-19T06:21:51;7.60;;;1.90;;
67187;SDS011;54117;53.532;49.426;2022-08-19T06:24:19;6.68;;;2.42;;
67187;SDS011;54117;53.532;49.426;2022-08-19T06:26:50;5.05;;;1.92;;
67187;SDS011;54117;53.532;49.426;2022-08-19T06:29:18;15.45;;;1.92;;
67187;SDS011;54117;53.532;49.426;2022-08-19T06:31:49;17.38;;;2.35;;
67187;SDS011;54117;53.532;49.426;2022-08-19T06:34:22;10.23;;;1.80;;
67187;SDS011;54117;53.532;49.426;2022-08-19T06:36:50;5.32;;;2.10;;
67187;SDS011;54117;53.532;49.426;2022-08-19T06:39:23;4.30;;;1.85;;
67187;SDS011;54117;53.532;49.426;2022-08-19T06:41:52;10.45;;;1.95;;
67187;SDS011;54117;53.532;49.426;2022-08-19T06:44:21;5.88;;;2.15;;
67187;SDS011;54117;53.532;49.426;2022-08-19T06:46:49;13.27;;;2.33;;
67187;SDS011;54117;53.532;49.426;2022-08-19T06:49:16;6.82;;;1.77;;
67187;SDS011;54117;53.532;49.426;2022-08-19T06:51:43;10.95;;;1.58;;
67187;SDS011;54117;53.532;49.426;2022-08-19T06:54:13;6.07;;;1.63;;
67187;SDS011;54117;53.532;49.426;2022-08-19T06:56:40;24.08;;;2.88;;
67187;SDS011;54117;53.532;49.426;2022-08-19T06:59:07;7.85;;;2.17;;
67187;SDS011;54117;53.532;49.426;2022-08-19T07:01:37;12.73;;;2.10;;
67187;SDS011;54117;53.532;49.426;2022-08-19T07:04:06;7.65;;;2.20;;
67187;SDS011;54117;53.532;49.426;2022-08-19T07:06:34;6.38;;;2.10;;
67187;SDS011;54117;53.532;49.426;2022-08-19T07:09:03;3.50;;;2.08;;
67187;SDS011;54117;53.532;49.426;2022-08-19T07:11:30;2.25;;;1.42;;
67187;SDS011;54117;53.532;49.426;2022-08-19T07:13:58;6.63;;;1.90;;
67187;SDS011;54117;53.532;49.426;2022-08-19T07:16:25;20.30;;;3.42;;
67187;SDS011;54117;53.532;49.426;2022-08-19T07:18:53;8.52;;;2.60;;
67187;SDS011;54117;53.532;49.426;2022-08-19T07:21:21;9.38;;;2.88;;
67187;SDS011;54117;53.532;49.426;2022-08-19T07:23:50;9.38;;;2.35;;
67187;SDS011;54117;53.532;49.426;2022-08-19T07:26:21;17.83;;;2.88;;
67187;SDS011;54117;53.532;49.426;2022-08-19T07:28:50;8.52;;;2.28;;
67187;SDS011;54117;53.532;49.426;2022-08-19T07:31:24;12.52;;;2.20;;
67187;SDS011;54117;53.532;49.426;2022-08-19T07:33:54;22.02;;;2.60;;
67187;SDS011;54117;53.532;49.426;2022-08-19T07:45:14;6.57;;;2.00;;
67187;SDS011;54117;53.532;49.426;2022-08-19T08:05:31;10.50;;;2.40;;
67187;SDS011;54117;53.532;49.426;2022-08-19T08:08:16;9.80;;;2.08;;
67187;SDS011;54117;53.532;49.426;2022-08-19T08:11:08;7.13;;;3.28;;
67187;SDS011;54117;53.532;49.426;2022-08-19T08:13:38;12.40;;;2.47;;
67187;SDS011;54117;53.532;49.426;2022-08-19T08:16:06;3.75;;;2.00;;
67187;SDS011;54117;53.532;49.426;2022-08-19T08:18:33;17.27;;;2.72;;
67187;SDS011;54117;53.532;49.426;2022-08-19T08:21:09;20.88;;;2.50;;
67187;SDS011;54117;53.532;49.426;2022-08-19T08:26:36;11.15;;;2.10;;
67187;SDS011;54117;53.532;49.426;2022-08-19T08:29:02;3.92;;;1.42;;
67187;SDS011;54117;53.532;49.426;2022-08-19T08:31:29;9.57;;;1.70;;
67187;SDS011;54117;53.532;49.426;2022-08-19T08:33:56;11.73;;;2.40;;
67187;SDS011;54117;53.532;49.426;2022-08-19T08:36:23;4.25;;;1.80;;
67187;SDS011;54117;53.532;49.426;2022-08-19T08:38:55;8.88;;;1.90;;
67187;SDS011;54117;53.532;49.426;2022-08-19T08:41:35;12.20;;;2.10;;
67187;SDS011;54117;53.532;49.426;2022-08-19T08:47:10;15.88;;;4.75;;
67187;SDS011;54117;53.532;49.426;2022-08-19T08:50:04;14.68;;;2.75;;
67187;SDS011;54117;53.532;49.426;2022-08-19T08:52:47;3.97;;;2.08;;
67187;SDS011;54117;53.532;49.426;2022-08-19T08:55:27;6.70;;;2.35;;
67187;SDS011;54117;53.532;49.426;2022-08-19T08:57:59;7.15;;;2.05;;
67187;SDS011;54117;53.532;49.426;2022-08-19T09:00:38;14.18;;;2.30;;
67187;SDS011;54117;53.532;49.426;2022-08-19T09:03:09;12.43;;;2.40;;
67187;SDS011;54117;53.532;49.426;2022-08-19T09:05:52;5.55;;;2.55;;
67187;SDS011;54117;53.532;49.426;2022-08-19T09:08:31;11.10;;;2.33;;
67187;SDS011;54117;53.532;49.426;2022-08-19T09:11:05;7.45;;;1.70;;
67187;SDS011;54117;53.532;49.426;2022-08-19T09:16:16;7.20;;;1.80;;
67187;SDS011;54117;53.532;49.426;2022-08-19T09:18:47;6.18;;;1.95;;
67187;SDS011;54117;53.532;49.426;2022-08-19T09:21:20;14.93;;;1.60;;
67187;SDS011;54117;53.532;49.426;2022-08-19T09:23:48;4.40;;;1.73;;
67187;SDS011;54117;53.532;49.426;2022-08-19T09:26:16;10.77;;;1.67;;
67187;SDS011;54117;53.532;49.426;2022-08-19T09:28:46;9.75;;;1.90;;
67187;SDS011;54117;53.532;49.426;2022-08-19T09:31:29;11.10;;;1.65;;
67187;SDS011;54117;53.532;49.426;2022-08-19T09:34:29;2.75;;;1.70;;
67187;SDS011;54117;53.532;49.426;2022-08-19T09:37:09;7.45;;;1.48;;
67187;SDS011;54117;53.532;49.426;2022-08-19T09:39:37;9.65;;;2.38;;
67187;SDS011;54117;53.532;49.426;2022-08-19T09:42:06;6.68;;;1.60;;
67187;SDS011;54117;53.532;49.426;2022-08-19T09:44:39;11.45;;;1.77;;
67187;SDS011;54117;53.532;49.426;2022-08-19T09:47:07;6.82;;;1.38;;
67187;SDS011;54117;53.532;49.426;2022-08-19T09:49:38;8.20;;;2.25;;
67187;SDS011;54117;53.532;49.426;2022-08-19T09:52:07;10.85;;;2.20;;
67187;SDS011;54117;53.532;49.426;2022-08-19T09:57:32;5.53;;;1.67;;
67187;SDS011;54117;53.532;49.426;2022-08-19T10:00:03;6.63;;;1.90;;
67187;SDS011;54117;53.532;49.426;2022-08-19T10:36:36;13.52;;;2.10;;
67187;SDS011;54117;53.532;49.426;2022-08-19T10:39:06;11.88;;;1.67;;
67187;SDS011;54117;53.532;49.426;2022-08-19T10:41:37;11.80;;;1.73;;
67187;SDS011;54117;53.532;49.426;2022-08-19T10:44:09;20.73;;;2.47;;
67187;SDS011;54117;53.532;49.426;2022-08-19T10:46:52;13.75;;;2.10;;
67187;SDS011;54117;53.532;49.426;2022-08-19T10:49:19;5.90;;;2.00;;
67187;SDS011;54117;53.532;49.426;2022-08-19T10:52:17;3.10;;;1.45;;
67187;SDS011;54117;53.532;49.426;2022-08-19T10:55:04;3.47;;;1.63;;
67187;SDS011;54117;53.532;49.426;2022-08-19T10:58:02;4.05;;;1.80;;
67187;SDS011;54117;53.532;49.426;2022-08-19T11:00:36;5.75;;;1.67;;
67187;SDS011;54117;53.532;49.426;2022-08-19T11:03:13;3.35;;;1.10;;
67187;SDS011;54117;53.532;49.426;2022-08-19T11:05:44;8.60;;;1.75;;
67187;SDS011;54117;53.532;49.426;2022-08-19T11:08:27;4.03;;;1.48;;
67187;SDS011;54117;53.532;49.426;2022-08-19T11:11:03;6.82;;;1.23;;
67187;SDS011;54117;53.532;49.426;2022-08-19T11:13:37;3.10;;;1.10;;
67187;SDS011;54117;53.532;49.426;2022-08-19T11:16:10;24.75;;;2.55;;
67187;SDS011;54117;53.532;49.426;2022-08-19T11:18:49;5.90;;;1.75;;
67187;SDS011;54117;53.532;49.426;2022-08-19T11:21:25;9.25;;;1.27;;
67187;SDS011;54117;53.532;49.426;2022-08-19T11:23:58;3.63;;;1.27;;
67187;SDS011;54117;53.532;49.426;2022-08-19T11:26:30;6.15;;;1.60;;
67187;SDS011;54117;53.532;49.426;2022-08-19T11:28:57;2.78;;;1.90;;
67187;SDS011;54117;53.532;49.426;2022-08-19T11:31:27;5.15;;;2.17;;
67187;SDS011;54117;53.532;49.426;2022-08-19T11:33:59;3.65;;;1.10;;
67187;SDS011;54117;53.532;49.426;2022-08-19T11:36:31;5.05;;;1.45;;
67187;SDS011;54117;53.532;49.426;2022-08-19T11:39:06;11.38;;;1.52;;
67187;SDS011;54117;53.532;49.426;2022-08-19T11:41:34;2.00;;;0.95;;
67187;SDS011;54117;53.532;49.426;2022-08-19T11:44:19;2.60;;;0.85;;
67187;SDS011;54117;53.532;49.426;2022-08-19T11:46:50;4.20;;;1.30;;
67187;SDS011;54117;53.532;49.426;2022-08-19T11:52:22;2.83;;;1.45;;
67187;SDS011;54117;53.532;49.426;2022-08-19T11:54:51;4.65;;;1.30;;
67187;SDS011;54117;53.532;49.426;2022-08-19T11:57:17;3.58;;;1.38;;
67187;SDS011;54117;53.532;49.426;2022-08-19T11:59:48;6.22;;;1.20;;
67187;SDS011;54117;53.532;49.426;2022-08-19T12:02:15;12.07;;;2.78;;
67187;SDS011;54117;53.532;49.426;2022-08-19T12:04:45;7.88;;;3.95;;
67187;SDS011;54117;53.532;49.426;2022-08-19T12:07:13;12.27;;;1.87;;
67187;SDS011;54117;53.532;49.426;2022-08-19T12:09:43;5.35;;;1.27;;
67187;SDS011;54117;53.532;49.426;2022-08-19T12:12:18;9.88;;;1.40;;
67187;SDS011;54117;53.532;49.426;2022-08-19T12:14:44;5.00;;;1.10;;
67187;SDS011;54117;53.532;49.426;2022-08-19T12:17:13;3.70;;;1.13;;
67187;SDS011;54117;53.532;49.426;2022-08-19T12:19:39;3.53;;;1.27;;
67187;SDS011;54117;53.532;49.426;2022-08-19T12:22:06;2.30;;;0.93;;
67187;SDS011;54117;53.532;49.426;2022-08-19T12:24:33;2.83;;;1.38;;
67187;SDS011;54117;53.532;49.426;2022-08-19T12:27:00;3.42;;;1.40;;
67187;SDS011;54117;53.532;49.426;2022-08-19T12:29:28;4.35;;;1.30;;
67187;SDS011;54117;53.532;49.426;2022-08-19T12:31:59;2.92;;;1.23;;
67187;SDS011;54117;53.532;49.426;2022-08-19T12:34:31;4.18;;;1.23;;
67187;SDS011;54117;53.532;49.426;2022-08-19T12:37:02;2.92;;;1.40;;
67187;SDS011;54117;53.532;49.426;2022-08-19T12:39:40;3.95;;;1.38;;
67187;SDS011;54117;53.532;49.426;2022-08-19T12:42:08;1.95;;;1.10;;
67187;SDS011;54117;53.532;49.426;2022-08-19T12:44:35;5.55;;;1.08;;
67187;SDS011;54117;53.532;49.426;2022-08-19T12:47:05;4.70;;;1.08;;
67187;SDS011;54117;53.532;49.426;2022-08-19T12:49:32;1.50;;;1.25;;
67187;SDS011;54117;53.532;49.426;2022-08-19T12:52:00;7.03;;;1.63;;
67187;SDS011;54117;53.532;49.426;2022-08-19T12:54:26;5.55;;;1.42;;
67187;SDS011;54117;53.532;49.426;2022-08-19T12:56:53;1.77;;;1.10;;
67187;SDS011;54117;53.532;49.426;2022-08-19T12:59:20;7.32;;;1.30;;
67187;SDS011;54117;53.532;49.426;2022-08-19T13:01:46;3.50;;;1.40;;
67187;SDS011;54117;53.532;49.426;2022-08-19T13:04:12;14.32;;;1.70;;
67187;SDS011;54117;53.532;49.426;2022-08-19T13:06:39;10.20;;;1.80;;
67187;SDS011;54117;53.532;49.426;2022-08-19T13:09:05;5.97;;;1.33;;
67187;SDS011;54117;53.532;49.426;2022-08-19T13:11:32;5.55;;;1.50;;
67187;SDS011;54117;53.532;49.426;2022-08-19T13:13:59;8.57;;;1.35;;
67187;SDS011;54117;53.532;49.426;2022-08-19T13:16:33;6.63;;;1.40;;
67187;SDS011;54117;53.532;49.426;2022-08-19T13:19:03;7.57;;;1.48;;
67187;SDS011;54117;53.532;49.426;2022-08-19T13:21:30;4.28;;;1.23;;
67187;SDS011;54117;53.532;49.426;2022-08-19T13:23:57;9.00;;;1.40;;
67187;SDS011;54117;53.532;49.426;2022-08-19T13:26:23;9.00;;;1.80;;
67187;SDS011;54117;53.532;49.426;2022-08-19T13:28:50;8.57;;;1.50;;
67187;SDS011;54117;53.532;49.426;2022-08-19T13:31:35;3.25;;;0.90;;
67187;SDS011;54117;53.532;49.426;2022-08-19T13:34:30;4.97;;;1.25;;
67187;SDS011;54117;53.532;49.426;2022-08-19T13:37:00;5.45;;;1.40;;
67187;SDS011;54117;53.532;49.426;2022-08-19T13:39:30;8.77;;;1.33;;
67187;SDS011;54117;53.532;49.426;2022-08-19T13:41:58;6.57;;;1.27;;
67187;SDS011;54117;53.532;49.426;2022-08-19T13:44:29;6.38;;;1.73;;
67187;SDS011;54117;53.532;49.426;2022-08-19T13:47:04;9.50;;;1.20;;
67187;SDS011;54117;53.532;49.426;2022-08-19T13:49:52;8.07;;;1.33;;
67187;SDS011;54117;53.532;49.426;2022-08-19T13:52:18;8.93;;;1.48;;
67187;SDS011;54117;53.532;49.426;2022-08-19T13:54:45;9.82;;;1.50;;
67187;SDS011;54117;53.532;49.426;2022-08-19T13:57:12;5.10;;;1.52;;
67187;SDS011;54117;53.532;49.426;2022-08-19T13:59:39;6.07;;;1.27;;
67187;SDS011;54117;53.532;49.426;2022-08-19T14:02:11;4.20;;;1.20;;
67187;SDS011;54117;53.532;49.426;2022-08-19T14:04:52;1.70;;;0.90;;
67187;SDS011;54117;53.532;49.426;2022-08-19T14:07:26;7.07;;;1.23;;
67187;SDS011;54117;53.532;49.426;2022-08-19T14:09:52;3.10;;;1.30;;
67187;SDS011;54117;53.532;49.426;2022-08-19T14:12:19;5.40;;;0.95;;
67187;SDS011;54117;53.532;49.426;2022-08-19T14:14:47;1.80;;;0.90;;
67187;SDS011;54117;53.532;49.426;2022-08-19T14:17:14;14.80;;;3.00;;
67187;SDS011;54117;53.532;49.426;2022-08-19T14:22:27;3.05;;;1.30;;
67187;SDS011;54117;53.532;49.426;2022-08-19T14:30:58;4.07;;;1.05;;
67187;SDS011;54117;53.532;49.426;2022-08-19T14:33:28;2.97;;;1.40;;
67187;SDS011;54117;53.532;49.426;2022-08-19T14:35:54;6.00;;;1.38;;
67187;SDS011;54117;53.532;49.426;2022-08-19T14:42:00;6.43;;;1.25;;
67187;SDS011;54117;53.532;49.426;2022-08-19T14:44:27;1.50;;;1.10;;
67187;SDS011;54117;53.532;49.426;2022-08-19T14:47:03;4.43;;;1.48;;
67187;SDS011;54117;53.532;49.426;2022-08-19T14:49:38;2.78;;;1.48;;
67187;SDS011;54117;53.532;49.426;2022-08-19T14:52:07;3.00;;;1.50;;
67187;SDS011;54117;53.532;49.426;2022-08-19T14:54:36;3.00;;;1.25;;
67187;SDS011;54117;53.532;49.426;2022-08-19T14:59:50;6.35;;;1.80;;
67187;SDS011;54117;53.532;49.426;2022-08-19T15:15:20;8.20;;;2.63;;
67187;SDS011;54117;53.532;49.426;2022-08-19T15:18:04;2.70;;;1.63;;
67187;SDS011;54117;53.532;49.426;2022-08-19T15:21:15;5.30;;;1.95;;
67187;SDS011;54117;53.532;49.426;2022-08-19T15:24:02;2.45;;;1.55;;
67187;SDS011;54117;53.532;49.426;2022-08-19T15:26:33;5.93;;;1.60;;
67187;SDS011;54117;53.532;49.426;2022-08-19T15:29:09;4.70;;;1.42;;
67187;SDS011;54117;53.532;49.426;2022-08-19T15:31:56;8.25;;;1.60;;
67187;SDS011;54117;53.532;49.426;2022-08-19T15:34:42;10.85;;;1.40;;
67187;SDS011;54117;53.532;49.426;2022-08-19T15:37:10;6.80;;;1.60;;
67187;SDS011;54117;53.532;49.426;2022-08-19T15:42:43;7.57;;;2.08;;
67187;SDS011;54117;53.532;49.426;2022-08-19T15:45:24;9.80;;;1.83;;
67187;SDS011;54117;53.532;49.426;2022-08-19T15:48:01;7.70;;;1.73;;
67187;SDS011;54117;53.532;49.426;2022-08-19T15:50:30;4.97;;;1.50;;
67187;SDS011;54117;53.532;49.426;2022-08-19T15:53:06;10.35;;;1.60;;
67187;SDS011;54117;53.532;49.426;2022-08-19T15:55:36;4.05;;;1.80;;
67187;SDS011;54117;53.532;49.426;2022-08-19T15:58:28;1.83;;;1.40;;
67187;SDS011;54117;53.532;49.426;2022-08-19T16:01:14;5.50;;;1.23;;
67187;SDS011;54117;53.532;49.426;2022-08-19T16:03:59;2.08;;;1.70;;
67187;SDS011;54117;53.532;49.426;2022-08-19T16:06:45;5.82;;;1.50;;
67187;SDS011;54117;53.532;49.426;2022-08-19T16:09:17;11.85;;;1.42;;
67187;SDS011;54117;53.532;49.426;2022-08-19T16:12:00;5.22;;;1.45;;
67187;SDS011;54117;53.532;49.426;2022-08-19T16:17:31;8.15;;;1.77;;
67187;SDS011;54117;53.532;49.426;2022-08-19T16:25:37;5.63;;;5.00;;
67187;SDS011;54117;53.532;49.426;2022-08-19T16:28:03;8.05;;;4.80;;
67187;SDS011;54117;53.532;49.426;2022-08-19T16:30:30;5.50;;;2.97;;
67187;SDS011;54117;53.532;49.426;2022-08-19T16:32:56;9.43;;;7.03;;
67187;SDS011;54117;53.532;49.426;2022-08-19T16:35:22;13.60;;;6.10;;
67187;SDS011;54117;53.532;49.426;2022-08-19T16:37:48;19.63;;;11.00;;
67187;SDS011;54117;53.532;49.426;2022-08-19T16:40:18;6.82;;;3.22;;
67187;SDS011;54117;53.532;49.426;2022-08-19T16:42:55;8.23;;;2.70;;
67187;SDS011;54117;53.532;49.426;2022-08-19T16:45:22;9.63;;;3.10;;